OMAL/AAN METAR and TAF weather

Enter ICAO airport designator
Station Type Date Time Source
OMAL METAR 2021/09/16 11:00 UTC NOAA

OMAL 161100Z 22004KT 160V300 CAVOK 41/08 Q1003 NOSIG


Station Type Date Time Source
OMAL Decoded METAR 2021/09/16 11:00 UTC NOAA

Al Ain International Airport, United Arab Emirates (OMAL) 24-16N 055-36E 262M
Sep 16, 2021 - 07:00 AM EDT / 2021.09.16 1100 UTC
Wind: from the SW (220 degrees) at 5 MPH (4 KT) (direction variable):0
Visibility: greater than 7 mile(s):0
Temperature: 105 F (41 C)
Dew Point: 46 F (8 C)
Relative Humidity: 13%
Pressure (altimeter): 29.62 in. Hg (1003 hPa)
ob: OMAL 161100Z 22004KT 160V300 CAVOK 41/08 Q1003 NOSIG
cycle: 11

Station Type Date Time Source
OMAL TAF 2021/09/16 12:12 UTC NOAA

TAF OMAL 161100Z 1612/1718 25007KT 8000 NSC
BECMG 1613/1615 35011KT
BECMG 1619/1621 05006KT
BECMG 1700/1702 16013KT
BECMG 1709/1711 34013KT

Example: see airport list